FW8506 Weather Reports


Display with metric or nautical units.
time (UTC)temp
F
wind
direction
speed
MPH
gust
MPH
rain 1hr
in
rain 24hr
in
rain mn
in
humidity
%
barometer
mb
20260503203521 60 222 7.0 14.0 0.00 0.00 0.00 65 1013.5
20260503203041 59 220 6.0 19.0 0.00 0.00 0.00 64 1013.5
20260503202521 59 271 7.0 19.0 0.00 0.00 0.00 65 1013.5
20260503202022 60 267 9.0 18.0 0.00 0.00 0.00 63 1013.5
20260503201541 60 199 5.0 13.0 0.00 0.00 0.00 64 1013.5
20260503201021 59 184 7.0 16.0 0.00 0.00 0.00 65 1013.4
20260503200521 60 236 7.0 16.0 0.00 0.00 0.00 64 1013.3
20260503200046 60 254 6.0 13.0 0.00 0.00 0.00 64 1013.4
20260503195519 62 257 6.0 13.0 0.00 0.00 0.00 62 1013.5
20260503195021 62 221 7.0 14.0 0.00 0.00 0.00 61 1013.6
20260503194544 63 266 8.0 15.0 0.00 0.00 0.00 60 1013.7
20260503194023 63 269 7.0 15.0 0.00 0.00 0.00 59 1013.7
20260503193524 62 250 6.0 15.0 0.00 0.00 0.00 60 1013.6
20260503193036 62 277 6.0 15.0 0.00 0.00 0.00 61 1013.6
20260503192530 62 294 5.0 13.0 0.00 0.00 0.00 66 1013.6
20260503192020 61 250 7.0 13.0 0.00 0.00 0.00 64 1013.7
20260503191547 60 222 5.0 13.0 0.00 0.00 0.00 66 1013.7
20260503191022 60 266 5.0 12.0 0.00 0.00 0.00 65 1013.7
20260503190520 61 209 5.0 11.0 0.00 0.00 0.00 67 1013.7
20260503190046 59 273 6.0 12.0 0.00 0.00 0.00 67 1013.8
20260503185521 59 245 5.0 12.0 0.00 0.00 0.00 68 1013.9
20260503185019 59 232 8.0 12.0 0.00 0.00 0.00 65 1013.9
20260503184554 59 269 5.0 11.0 0.00 0.00 0.00 67 1014.0
20260503184021 58 274 6.0 13.0 0.00 0.00 0.00 69 1014.0
20260503183518 58 245 7.0 13.0 0.00 0.00 0.00 70 1014.0
20260503183055 57 257 6.0 11.0 0.00 0.00 0.00 73 1014.0
20260503182521 57 279 3.0 10.0 0.00 0.00 0.00 73 1014.1
20260503182021 56 267 3.0 11.0 0.00 0.00 0.00 76 1014.1
20260503181541 56 250 4.0 11.0 0.00 0.00 0.00 76 1014.1
20260503181020 55 217 5.0 11.0 0.00 0.00 0.00 76 1014.2
20260503180520 55 234 5.0 11.0 0.00 0.00 0.00 79 1014.1
20260503180044 55 213 7.0 11.0 0.00 0.00 0.00 78 1014.1
20260503175520 55 229 4.0 9.0 0.00 0.00 0.00 77 1014.1
20260503175025 55 239 3.0 10.0 0.00 0.00 0.00 77 1014.1
20260503174539 55 277 3.0 10.0 0.00 0.00 0.00 76 1014.0
20260503174020 56 247 4.0 12.0 0.00 0.00 0.00 77 1014.0
20260503173524 56 261 7.0 12.0 0.00 0.00 0.00 77 1014.0
20260503173038 56 273 4.0 12.0 0.00 0.00 0.00 76 1014.0
20260503172519 56 175 4.0 12.0 0.00 0.00 0.00 77 1014.0
20260503172020 55 230 7.0 12.0 0.00 0.00 0.00 77 1014.0
20260503171542 55 247 5.0 11.0 0.00 0.00 0.00 79 1013.9
20260503171020 54 289 5.0 13.0 0.00 0.00 0.00 80 1013.9
20260503170520 55 225 5.0 13.0 0.00 0.00 0.00 80 1013.8
20260503150520 52 0 0.0 1.0 0.00 0.00 0.00 87 1013.1
20260503131020 48 0 0.0 3.0 0.00 0.00 0.00 91 1012.2
20260503130521 48 0 0.0 3.0 0.00 0.00 0.00 91 1012.1
20260503110522 49 0 0.0 1.0 0.00 0.00 0.00 88 1011.8
20260503081554 49 257 1.0 3.0 0.00 0.00 0.00 90 1012.3
20260503081021 49 257 0.0 3.0 0.00 0.00 0.00 91 1012.4
20260503080520 49 257 0.0 3.0 0.00 0.00 0.00 91 1012.4
20260503072519 50 0 0.0 3.0 0.00 0.00 0.00 90 1012.2
20260503072020 50 0 0.0 3.0 0.00 0.00 0.00 90 1012.1
20260503071540 50 0 0.0 3.0 0.00 0.00 0.00 90 1012.1
20260503071019 49 304 1.0 3.0 0.00 0.00 0.00 89 1012.1
20260503070521 50 272 0.0 2.0 0.00 0.00 0.00 89 1012.1
20260503055019 53 281 2.0 6.0 0.00 0.00 0.00 87 1011.8
20260503054547 53 281 2.0 6.0 0.00 0.00 0.00 87 1011.8
20260503054022 53 218 2.0 6.0 0.00 0.00 0.00 87 1011.8
20260503053520 53 238 2.0 7.0 0.00 0.00 0.00 87 1011.7
20260503053039 53 220 3.0 7.0 0.00 0.00 0.00 87 1011.7
20260503052520 53 222 3.0 7.0 0.00 0.00 0.00 87 1011.7
20260503052019 53 221 2.0 11.0 0.00 0.00 0.00 87 1011.7
20260503051538 53 260 3.0 11.0 0.00 0.00 0.00 87 1011.6
20260503051019 52 254 5.0 11.0 0.00 0.00 0.00 88 1011.5
20260503050522 52 257 3.0 10.0 0.00 0.00 0.00 88 1011.4
20260503050038 52 242 6.0 12.0 0.00 0.00 0.00 88 1011.5
20260503045522 52 245 3.0 12.0 0.00 0.00 0.00 88 1011.5
20260503045022 52 271 5.0 12.0 0.00 0.00 0.00 88 1011.4
20260503044549 52 281 5.0 11.0 0.00 0.00 0.00 88 1011.3
20260503044021 52 240 3.0 11.0 0.00 0.00 0.00 88 1011.2
20260503043521 52 270 6.0 10.0 0.00 0.00 0.00 88 1011.2
20260503043043 52 263 4.0 9.0 0.00 0.00 0.00 88 1011.0
20260503042521 52 261 4.0 10.0 0.00 0.00 0.00 88 1011.0
20260503042021 52 254 4.0 10.0 0.00 0.00 0.00 88 1011.1
20260503041545 52 257 4.0 11.0 0.00 0.00 0.00 88 1011.0
20260503041021 52 228 5.0 11.0 0.00 0.00 0.00 88 1011.0
20260503040521 52 196 6.0 14.0 0.00 0.00 0.00 88 1011.0
20260503040041 52 221 6.0 14.0 0.00 0.00 0.00 88 1011.0
20260503035521 52 223 5.0 19.0 0.00 0.00 0.00 88 1011.0
20260503035022 52 214 7.0 19.0 0.00 0.00 0.00 87 1010.9
20260503034542 52 218 5.0 20.0 0.00 0.00 0.00 87 1010.9
20260503034021 52 238 8.0 20.0 0.00 0.00 0.00 87 1010.9
20260503033520 52 217 7.0 20.0 0.00 0.00 0.00 87 1010.8
20260503033058 52 274 7.0 15.0 0.00 0.00 0.00 86 1010.7
20260503032518 52 261 6.0 14.0 0.00 0.00 0.00 86 1010.7
20260503032025 53 249 5.0 14.0 0.00 0.00 0.00 86 1010.9
20260503031552 53 250 7.0 14.0 0.00 0.00 0.00 85 1010.9
20260503031025 53 229 5.0 15.0 0.00 0.00 0.00 85 1010.8
20260503030521 53 227 5.0 15.0 0.00 0.00 0.00 85 1010.8
20260503030040 53 222 7.0 15.0 0.00 0.00 0.00 85 1010.7
20260503025519 53 226 7.0 15.0 0.00 0.00 0.00 85 1010.7
20260503025021 53 239 6.0 11.0 0.00 0.00 0.00 84 1010.7
20260503024536 54 232 5.0 10.0 0.00 0.00 0.00 84 1010.7
20260503024019 54 265 4.0 11.0 0.00 0.00 0.00 83 1010.6
20260503023521 54 266 5.0 11.0 0.00 0.00 0.00 83 1010.7
20260503023045 54 258 5.0 11.0 0.00 0.00 0.00 82 1010.7
20260503022520 55 215 6.0 12.0 0.00 0.00 0.00 82 1010.7
20260503022020 55 212 5.0 12.0 0.00 0.00 0.00 81 1010.7
20260503021540 55 213 5.0 11.0 0.00 0.00 0.00 81 1010.7
20260503021021 56 275 6.0 12.0 0.00 0.00 0.00 80 1010.7
20260503020522 56 240 5.0 12.0 0.00 0.00 0.00 79 1010.6
20260503020048 57 269 6.0 12.0 0.00 0.00 0.00 79 1010.6
20260503015519 57 235 5.0 12.0 0.00 0.00 0.00 78 1010.6
20260503015019 58 244 6.0 12.0 0.00 0.00 0.00 77 1010.6
20260503014542 58 224 6.0 11.0 0.00 0.00 0.00 77 1010.6
20260503014019 58 245 4.0 13.0 0.00 0.00 0.00 76 1010.6
20260503013519 58 228 5.0 13.0 0.00 0.00 0.00 76 1010.5
20260503013039 59 271 6.0 14.0 0.00 0.00 0.00 76 1010.5
20260503012521 59 274 7.0 14.0 0.00 0.00 0.00 76 1010.4
20260503012020 59 236 7.0 15.0 0.00 0.00 0.00 75 1010.4
20260503011546 59 231 6.0 15.0 0.00 0.00 0.00 75 1010.3
20260503011021 60 289 5.0 17.0 0.00 0.00 0.00 75 1010.3
20260503010519 59 213 7.0 18.0 0.00 0.00 0.00 75 1010.3
20260503010041 60 243 10.0 18.0 0.00 0.00 0.00 75 1010.3
20260503005520 60 213 10.0 19.0 0.00 0.00 0.00 75 1010.3
20260503005020 60 213 11.0 20.0 0.00 0.00 0.00 75 1010.3
20260503004543 60 221 12.0 20.0 0.00 0.00 0.00 74 1010.2
20260503004023 61 239 9.0 20.0 0.00 0.00 0.00 73 1010.1
20260503003518 61 210 11.0 22.0 0.00 0.00 0.00 74 1010.1
20260503003043 60 225 13.0 22.0 0.00 0.00 0.00 73 1010.1
20260503002521 61 209 12.0 24.0 0.00 0.00 0.00 73 1010.1
20260503002025 61 234 14.0 24.0 0.00 0.00 0.00 73 1010.2
20260503001537 62 234 12.0 22.0 0.00 0.00 0.00 71 1010.2
20260503001019 62 227 12.0 20.0 0.00 0.00 0.00 71 1010.2
20260503000522 62 244 11.0 21.0 0.00 0.00 0.00 70 1010.2
20260503000035 62 219 12.0 21.0 0.00 0.00 0.00 71 1010.2
20260502235519 62 221 10.0 21.0 0.00 0.00 0.00 71 1010.2
20260502235021 62 225 13.0 20.0 0.00 0.00 0.00 70 1010.2
20260502234541 63 213 12.0 21.0 0.00 0.00 0.00 69 1010.2
20260502234019 63 223 13.0 21.0 0.00 0.00 0.00 68 1010.2
20260502233521 64 229 8.0 20.0 0.00 0.00 0.00 68 1010.2
20260502233059 64 250 10.0 21.0 0.00 0.00 0.00 68 1010.3
20260502232521 63 223 12.0 21.0 0.00 0.00 0.00 69 1010.3
20260502232021 64 259 10.0 16.0 0.00 0.00 0.00 69 1010.4
20260502231602 65 281 8.0 18.0 0.00 0.00 0.00 67 1010.5
20260502231022 64 291 11.0 18.0 0.00 0.00 0.00 69 1010.6
20260502230520 64 245 10.0 18.0 0.00 0.00 0.00 68 1010.6
20260502230036 64 277 9.0 18.0 0.00 0.00 0.00 68 1010.7
20260502225521 65 265 8.0 19.0 0.00 0.00 0.00 68 1010.7
20260502225018 65 228 8.0 19.0 0.00 0.00 0.00 68 1010.8
20260502224545 65 236 8.0 18.0 0.00 0.00 0.00 67 1011.0
20260502224021 66 225 8.0 21.0 0.00 0.00 0.00 66 1011.1
20260502223521 65 218 9.0 21.0 0.00 0.00 0.00 66 1011.1
20260502223048 65 277 11.0 21.0 0.00 0.00 0.00 66 1011.2
20260502222521 66 275 9.0 20.0 0.00 0.00 0.00 67 1011.2
20260502222022 65 228 12.0 20.0 0.00 0.00 0.00 67 1011.3
20260502221540 65 311 12.0 19.0 0.00 0.00 0.00 67 1011.4
20260502221021 65 267 11.0 18.0 0.00 0.00 0.00 67 1011.5
20260502220522 65 212 11.0 18.0 0.00 0.00 0.00 68 1011.7
20260502220043 66 259 8.0 17.0 0.00 0.00 0.00 69 1011.7
20260502215521 65 242 8.0 18.0 0.00 0.00 0.00 68 1011.8
20260502215022 65 266 10.0 18.0 0.00 0.00 0.00 70 1011.9
20260502214542 65 265 9.0 18.0 0.00 0.00 0.00 70 1012.0
20260502214021 65 277 10.0 18.0 0.00 0.00 0.00 69 1012.0
20260502213521 65 230 8.0 16.0 0.00 0.00 0.00 68 1012.2
20260502213050 66 253 8.0 16.0 0.00 0.00 0.00 68 1012.1
20260502212521 66 279 8.0 16.0 0.00 0.00 0.00 69 1012.2
20260502212021 65 226 8.0 16.0 0.00 0.00 0.00 71 1012.3
20260502211544 65 243 10.0 16.0 0.00 0.00 0.00 70 1012.3
20260502211025 65 266 9.0 17.0 0.00 0.00 0.00 71 1012.4
20260502210522 65 252 6.0 17.0 0.00 0.00 0.00 71 1012.5
20260502210035 64 243 7.0 14.0 0.00 0.00 0.00 71 1012.6
20260502205524 64 263 7.0 14.0 0.00 0.00 0.00 72 1012.5
20260502205021 65 232 5.0 14.0 0.00 0.00 0.00 74 1012.7
20260502204549 63 232 7.0 17.0 0.00 0.00 0.00 75 1012.8
20260502204020 61 223 10.0 17.0 0.00 0.00 0.00 76 1012.8